createdAt,value
2019-03-06T00:01:12.830Z,95363.39
2019-03-06T00:04:01.906Z,95365.13
2019-03-06T00:06:50.781Z,95363.39
2019-03-06T00:09:39.420Z,95353.89
2019-03-06T00:12:27.962Z,95356.50
2019-03-06T00:15:16.955Z,95363.03
2019-03-06T00:18:05.693Z,95356.63
2019-03-06T00:20:54.366Z,95358.39
2019-03-06T00:23:43.253Z,95356.26
2019-03-06T00:26:32.167Z,95347.30
2019-03-06T00:29:21.423Z,95349.02
2019-03-06T00:32:10.649Z,95338.23
2019-03-06T00:35:01.562Z,95335.64
2019-03-06T00:37:49.767Z,95332.25
2019-03-06T00:40:53.429Z,95336.13
2019-03-06T00:43:42.088Z,95337.86
2019-03-06T00:46:31.024Z,95331.86
2019-03-06T00:49:19.685Z,95335.76
2019-03-06T00:52:08.281Z,95333.66
2019-03-06T00:54:56.370Z,95333.76
2019-03-06T00:57:44.514Z,95326.42
2019-03-06T01:00:33.378Z,95326.91
2019-03-06T01:03:22.021Z,95323.03
2019-03-06T01:06:11.134Z,95320.87
2019-03-06T01:09:00.132Z,95315.70
2019-03-06T01:11:49.010Z,95315.33
2019-03-06T01:14:37.813Z,95306.82
2019-03-06T01:17:25.886Z,95312.89
2019-03-06T01:20:14.564Z,95315.53
2019-03-06T01:23:03.187Z,95306.53
2019-03-06T01:25:51.896Z,95306.09
2019-03-06T01:28:40.463Z,95300.13
2019-03-06T01:31:29.115Z,95297.15
2019-03-06T01:34:39.940Z,95293.67
2019-03-06T01:37:56.302Z,95286.41
2019-03-06T01:40:57.966Z,95282.13
2019-03-06T01:43:51.530Z,95273.13
2019-03-06T01:46:40.713Z,95269.27
2019-03-06T01:49:29.104Z,95267.56
2019-03-06T01:52:17.735Z,95270.19
2019-03-06T01:55:06.663Z,95266.76
2019-03-06T01:57:55.395Z,95265.94
2019-03-06T02:00:45.226Z,95261.17
2019-03-06T02:03:33.866Z,95264.22
2019-03-06T02:06:22.361Z,95261.17
2019-03-06T02:09:11.542Z,95254.78
2019-03-06T02:12:00.107Z,95252.19
2019-03-06T02:14:49.175Z,95256.08
2019-03-06T02:17:39.016Z,95260.81
2019-03-06T02:20:27.618Z,95256.98
2019-03-06T02:23:16.618Z,95258.73
2019-03-06T02:26:05.255Z,95248.88
2019-03-06T02:28:54.082Z,95249.34
2019-03-06T02:31:43.081Z,95244.63
2019-03-06T02:34:31.830Z,95242.05
2019-03-06T02:37:19.876Z,95240.30
2019-03-06T02:40:08.122Z,95230.86
2019-03-06T02:42:57.286Z,95228.28
2019-03-06T02:45:45.685Z,95226.55
2019-03-06T02:48:34.378Z,95226.95
2019-03-06T02:51:22.817Z,95230.34
2019-03-06T02:54:11.578Z,95234.68
2019-03-06T02:57:00.053Z,95229.51
2019-03-06T02:59:54.369Z,95229.11
2019-03-06T03:02:49.332Z,95223.95
2019-03-06T03:05:45.648Z,95219.64
2019-03-06T03:08:33.907Z,95216.63
2019-03-06T03:11:22.492Z,95208.48
2019-03-06T03:14:11.072Z,95211.47
2019-03-06T03:17:00.063Z,95207.64
2019-03-06T03:19:49.071Z,95201.61
2019-03-06T03:22:37.914Z,95186.59
2019-03-06T03:25:26.876Z,95187.05
2019-03-06T03:28:15.849Z,95190.05
2019-03-06T03:31:04.300Z,95187.05
2019-03-06T03:33:52.515Z,95178.02
2019-03-06T03:36:40.977Z,95182.36
2019-03-06T03:39:29.512Z,95180.23
2019-03-06T03:42:18.632Z,95179.38
2019-03-06T03:45:07.957Z,95179.38
2019-03-06T03:47:56.691Z,95174.23
2019-03-06T03:50:45.751Z,95172.94
2019-03-06T03:53:34.204Z,95166.49
2019-03-06T03:56:23.503Z,95165.22
2019-03-06T03:59:12.148Z,95158.78
2019-03-06T04:02:01.133Z,95157.91
2019-03-06T04:04:50.267Z,95161.78
2019-03-06T04:07:38.926Z,95155.34
2019-03-06T04:10:27.383Z,95148.45
2019-03-06T04:13:15.975Z,95152.36
2019-03-06T04:16:04.362Z,95154.92
2019-03-06T04:18:53.262Z,95157.45
2019-03-06T04:21:41.771Z,95158.73
2019-03-06T04:24:30.398Z,95163.89
2019-03-06T04:27:18.737Z,95161.36
2019-03-06T04:30:08.533Z,95168.64
2019-03-06T04:32:56.887Z,95160.06
2019-03-06T04:35:45.261Z,95164.80
2019-03-06T04:38:33.942Z,95159.23
2019-03-06T04:41:22.398Z,95159.20
2019-03-06T04:44:10.686Z,95162.20
2019-03-06T04:46:59.067Z,95158.34
2019-03-06T04:49:52.783Z,95157.90
2019-03-06T04:52:38.204Z,95155.38
2019-03-06T04:55:26.848Z,95152.87
2019-03-06T04:58:15.891Z,95146.87
2019-03-06T05:01:03.949Z,95144.72
2019-03-06T05:03:52.736Z,95157.59
2019-03-06T05:06:41.005Z,95156.66
2019-03-06T05:09:28.989Z,95157.09
2019-03-06T05:12:17.627Z,95161.86
2019-03-06T05:15:06.685Z,95159.31
2019-03-06T05:18:14.097Z,95160.15
2019-03-06T05:21:02.960Z,95157.57
2019-03-06T05:23:51.847Z,95155.46
2019-03-06T05:26:40.975Z,95151.15
2019-03-06T05:29:29.747Z,95149.02
2019-03-06T05:32:27.530Z,95143.87
2019-03-06T05:35:42.150Z,95148.62
2019-03-06T05:38:38.805Z,95148.17
2019-03-06T05:41:27.743Z,95148.57
2019-03-06T05:44:16.247Z,95134.42
2019-03-06T05:47:04.727Z,95136.16
2019-03-06T05:49:54.293Z,95134.40
2019-03-06T05:52:42.541Z,95130.53
2019-03-06T05:55:31.317Z,95132.65
2019-03-06T05:58:19.418Z,95131.36
2019-03-06T06:01:07.927Z,95125.34
2019-03-06T06:03:56.441Z,95121.92
2019-03-06T06:06:44.630Z,95123.20
2019-03-06T06:09:33.513Z,95122.34
2019-03-06T06:12:22.477Z,95119.79
2019-03-06T06:15:11.305Z,95121.05
2019-03-06T06:18:00.612Z,95114.56
2019-03-06T06:20:51.792Z,95104.69
2019-03-06T06:23:44.701Z,95102.06
2019-03-06T06:26:33.642Z,95088.70
2019-03-06T06:29:22.212Z,95088.67
2019-03-06T06:32:10.978Z,95089.94
2019-03-06T06:34:59.645Z,95089.04
2019-03-06T06:37:48.737Z,95082.57
2019-03-06T06:40:37.106Z,95077.05
2019-03-06T06:43:25.328Z,95068.00
2019-03-06T06:46:13.746Z,95074.03
2019-03-06T06:49:03.626Z,95076.09
2019-03-06T06:52:24.185Z,95072.59
2019-03-06T06:55:39.534Z,95063.13
2019-03-06T06:59:07.556Z,95063.91
2019-03-06T07:02:38.267Z,95066.42
2019-03-06T07:05:49.276Z,95060.36
2019-03-06T07:09:15.868Z,95050.43
2019-03-06T07:12:12.560Z,95038.83
2019-03-06T07:15:21.264Z,95040.02
2019-03-06T07:18:34.806Z,95028.75
2019-03-06T07:21:33.070Z,95031.22
2019-03-06T07:24:39.949Z,95040.49
2019-03-06T07:27:53.660Z,95040.34
2019-03-06T07:30:58.080Z,95047.05
2019-03-06T07:34:05.008Z,95047.80
2019-03-06T07:37:04.154Z,95043.88
2019-03-06T07:39:56.339Z,95043.38
2019-03-06T07:42:58.802Z,95037.22
2019-03-06T07:46:08.548Z,95034.91
2019-03-06T07:49:15.502Z,95030.84
2019-03-06T07:52:20.206Z,95032.88
2019-03-06T07:55:28.312Z,95032.30
2019-03-06T07:58:51.534Z,95020.11
2019-03-06T08:02:00.987Z,95014.77
2019-03-06T08:04:52.489Z,95009.81
2019-03-06T08:07:41.275Z,95005.72
2019-03-06T08:10:33.510Z,94994.07
2019-03-06T08:13:31.372Z,94990.89
2019-03-06T08:16:26.098Z,94993.32
2019-03-06T08:19:36.398Z,94989.31
2019-03-06T08:22:50.001Z,94985.66
2019-03-06T08:25:43.850Z,94975.91
2019-03-06T08:28:32.830Z,94975.22
2019-03-06T08:31:29.038Z,94968.00
2019-03-06T08:34:17.793Z,94968.56
2019-03-06T08:37:06.672Z,94964.42
2019-03-06T08:39:56.225Z,94962.48
2019-03-06T08:42:45.784Z,94960.19
2019-03-06T08:45:45.908Z,94950.95
2019-03-06T08:48:41.345Z,94951.98
2019-03-06T08:51:39.732Z,94942.26
2019-03-06T08:54:33.832Z,94941.94
2019-03-06T08:57:47.319Z,94935.62
2019-03-06T09:01:01.045Z,94942.69
2019-03-06T09:04:11.248Z,94940.19
2019-03-06T09:07:30.407Z,94937.25
2019-03-06T09:10:37.299Z,94933.92
2019-03-06T09:13:44.980Z,94930.96
2019-03-06T09:16:39.232Z,94923.64
2019-03-06T09:19:35.622Z,94928.57
2019-03-06T09:22:42.343Z,94920.42
2019-03-06T09:25:50.596Z,94923.13
2019-03-06T09:28:46.799Z,94923.20
2019-03-06T09:31:54.045Z,94918.80
2019-03-06T09:35:01.752Z,94911.55
2019-03-06T09:38:11.002Z,94908.14
2019-03-06T09:41:16.393Z,94894.55
2019-03-06T09:44:16.714Z,94883.53
2019-03-06T09:47:21.299Z,94878.71
2019-03-06T09:50:15.480Z,94872.79
2019-03-06T09:53:23.628Z,94877.50
2019-03-06T09:56:41.787Z,94876.23
2019-03-06T09:59:48.374Z,94873.59
2019-03-06T10:03:14.330Z,94866.92
2019-03-06T10:06:20.649Z,94864.55
2019-03-06T10:09:24.794Z,94858.72
2019-03-06T10:12:47.258Z,94862.72
2019-03-06T10:15:46.706Z,94854.41
2019-03-06T10:18:43.074Z,94848.98
2019-03-06T10:21:32.078Z,94841.41
2019-03-06T10:24:21.409Z,94847.38
2019-03-06T10:27:10.379Z,94839.83
2019-03-06T10:29:59.045Z,94833.48
2019-03-06T10:32:48.215Z,94829.17
2019-03-06T10:35:37.307Z,94829.03
2019-03-06T10:38:25.591Z,94828.02
2019-03-06T10:41:14.735Z,94817.11
2019-03-06T10:44:03.120Z,94804.94
2019-03-06T10:46:51.987Z,94810.92
2019-03-06T10:49:40.835Z,94812.45
2019-03-06T10:52:30.022Z,94807.91
2019-03-06T10:55:19.081Z,94803.70
2019-03-06T10:58:07.923Z,94798.03
2019-03-06T11:00:56.807Z,94801.75
2019-03-06T11:03:55.373Z,94801.31
2019-03-06T11:06:43.541Z,94794.73
2019-03-06T11:09:32.150Z,94791.05
2019-03-06T11:12:20.920Z,94788.98
2019-03-06T11:15:10.748Z,94778.10
2019-03-06T11:17:59.459Z,94770.19
2019-03-06T11:20:48.297Z,94767.37
2019-03-06T11:23:36.787Z,94772.64
2019-03-06T11:26:26.150Z,94767.47
2019-03-06T11:29:14.931Z,94753.02
2019-03-06T11:32:03.743Z,94749.41
2019-03-06T11:34:52.448Z,94748.63
2019-03-06T11:37:41.197Z,94745.02
2019-03-06T11:40:29.838Z,94739.78
2019-03-06T11:43:18.366Z,94744.42
2019-03-06T11:46:08.417Z,94734.64
2019-03-06T11:48:57.447Z,94723.89
2019-03-06T11:51:46.236Z,94729.03
2019-03-06T11:54:34.759Z,94724.88
2019-03-06T11:57:23.500Z,94721.06
2019-03-06T12:00:24.763Z,94718.44
2019-03-06T12:03:15.425Z,94709.74
2019-03-06T12:06:06.477Z,94717.39
2019-03-06T12:08:54.589Z,94710.52
2019-03-06T12:11:42.853Z,94703.36
2019-03-06T12:14:31.295Z,94698.17
2019-03-06T12:17:20.140Z,94696.40
2019-03-06T12:20:08.834Z,94696.10
2019-03-06T12:22:57.673Z,94697.02
2019-03-06T12:25:46.581Z,94690.69
2019-03-06T12:28:35.102Z,94686.69
2019-03-06T12:31:23.736Z,94681.06
2019-03-06T12:34:12.676Z,94677.56
2019-03-06T12:37:02.266Z,94672.04
2019-03-06T12:39:51.148Z,94671.34
2019-03-06T12:42:40.167Z,94666.31
2019-03-06T12:45:29.594Z,94657.85
2019-03-06T12:48:17.925Z,94649.53
2019-03-06T12:51:06.894Z,94640.56
2019-03-06T12:53:55.452Z,94630.48
2019-03-06T12:56:44.361Z,94625.86
2019-03-06T12:59:33.318Z,94629.83
2019-03-06T13:02:21.860Z,94619.71
2019-03-06T13:05:10.247Z,94614.64
2019-03-06T13:07:58.953Z,94605.59
2019-03-06T13:10:48.060Z,94592.06
2019-03-06T13:13:36.813Z,94586.56
2019-03-06T13:16:25.937Z,94585.38
2019-03-06T13:19:15.002Z,94581.16
2019-03-06T13:22:11.107Z,94570.60
2019-03-06T13:24:53.650Z,94562.68
2019-03-06T13:27:42.537Z,94546.50
2019-03-06T13:30:31.493Z,94550.27
2019-03-06T13:33:47.085Z,94551.11
2019-03-06T13:36:35.593Z,94543.77
2019-03-06T13:39:24.353Z,94537.64
2019-03-06T13:42:13.182Z,94534.95
2019-03-06T13:45:01.449Z,94521.14
2019-03-06T13:47:51.100Z,94508.70
2019-03-06T13:50:40.299Z,94506.72
2019-03-06T13:53:29.093Z,94503.91
2019-03-06T13:56:17.653Z,94498.39
2019-03-06T13:59:06.362Z,94497.83
2019-03-06T14:01:55.308Z,94494.64
2019-03-06T14:04:43.880Z,94495.39
2019-03-06T14:07:33.380Z,94489.46
2019-03-06T14:10:22.370Z,94481.29
2019-03-06T14:13:12.187Z,94485.25
2019-03-06T14:16:01.928Z,94474.91
2019-03-06T14:18:50.833Z,94474.48
2019-03-06T14:21:40.159Z,94471.53
2019-03-06T14:24:29.877Z,94465.67
2019-03-06T14:27:19.064Z,94460.36
2019-03-06T14:30:08.891Z,94457.64
2019-03-06T14:32:57.347Z,94458.92
2019-03-06T14:35:46.304Z,94456.98
2019-03-06T14:38:35.568Z,94454.38
2019-03-06T14:41:24.949Z,94448.30
2019-03-06T14:44:13.715Z,94443.77
2019-03-06T14:47:02.448Z,94453.14
2019-03-06T14:49:51.185Z,94445.29
2019-03-06T14:52:39.967Z,94442.56
2019-03-06T14:55:28.713Z,94434.60
2019-03-06T14:58:17.349Z,94426.44
2019-03-06T15:01:06.947Z,94424.94
2019-03-06T15:03:55.560Z,94417.36
2019-03-06T15:06:45.106Z,94417.75
2019-03-06T15:09:33.938Z,94414.42
2019-03-06T15:12:22.909Z,94416.94
2019-03-06T15:15:13.045Z,94417.86
2019-03-06T15:18:10.302Z,94410.28
2019-03-06T15:20:52.053Z,94405.79
2019-03-06T15:23:40.911Z,94408.22
2019-03-06T15:26:30.725Z,94399.64
2019-03-06T15:29:19.428Z,94394.20
2019-03-06T15:32:08.702Z,94393.51
2019-03-06T15:34:57.846Z,94380.39
2019-03-06T15:37:46.356Z,94378.48
2019-03-06T15:40:35.540Z,94372.11
2019-03-06T15:43:23.888Z,94375.02
2019-03-06T15:47:45.164Z,94375.59
2019-03-06T15:50:34.712Z,94370.95
2019-03-06T15:53:25.014Z,94372.78
2019-03-06T15:56:14.199Z,94362.75
2019-03-06T15:59:03.339Z,94347.02
2019-03-06T16:01:52.562Z,94340.68
2019-03-06T16:04:41.357Z,94336.06
2019-03-06T16:07:30.347Z,94337.20
2019-03-06T16:10:19.270Z,94344.80
2019-03-06T16:13:08.547Z,94344.25
2019-03-06T16:15:57.066Z,94343.11
2019-03-06T16:18:45.665Z,94335.00
2019-03-06T16:21:34.658Z,94345.30
2019-03-06T16:24:24.078Z,94343.50
2019-03-06T16:27:13.153Z,94331.09
2019-03-06T16:30:01.898Z,94335.56
2019-03-06T16:32:50.603Z,94338.92
2019-03-06T16:35:39.336Z,94338.42
2019-03-06T16:38:27.591Z,94336.27
2019-03-06T16:41:16.549Z,94334.08
2019-03-06T16:44:05.505Z,94326.30
2019-03-06T16:46:54.519Z,94329.17
2019-03-06T16:49:43.285Z,94323.89
2019-03-06T16:52:31.940Z,94320.67
2019-03-06T16:55:20.600Z,94323.48
2019-03-06T16:58:09.600Z,94326.53
2019-03-06T17:00:58.140Z,94328.54
2019-03-06T17:03:46.941Z,94330.19
2019-03-06T17:06:35.481Z,94328.55
2019-03-06T17:09:24.357Z,94326.80
2019-03-06T17:12:13.400Z,94324.81
2019-03-06T17:15:02.692Z,94329.81
2019-03-06T17:17:51.572Z,94323.94
2019-03-06T17:20:40.514Z,94326.56
2019-03-06T17:23:28.694Z,94327.02
2019-03-06T17:26:17.017Z,94326.70
2019-03-06T17:29:14.757Z,94324.87
2019-03-06T17:32:03.035Z,94328.48
2019-03-06T17:34:52.232Z,94325.64
2019-03-06T17:37:41.137Z,94325.11
2019-03-06T17:40:30.565Z,94326.94
2019-03-06T17:43:19.596Z,94325.45
2019-03-06T17:46:08.796Z,94327.67
2019-03-06T17:48:57.626Z,94330.14
2019-03-06T17:51:46.905Z,94325.52
2019-03-06T17:54:35.459Z,94324.64
2019-03-06T17:57:24.945Z,94330.33
2019-03-06T18:00:17.201Z,94327.68
2019-03-06T18:03:06.669Z,94322.37
2019-03-06T18:05:56.181Z,94309.67
2019-03-06T18:08:45.464Z,94303.69
2019-03-06T18:11:34.806Z,94309.66
2019-03-06T18:14:23.674Z,94306.72
2019-03-06T18:17:12.491Z,94307.64
2019-03-06T18:20:01.737Z,94309.12
2019-03-06T18:22:50.606Z,94298.70
2019-03-06T18:25:39.531Z,94300.37
2019-03-06T18:28:28.330Z,94289.61
2019-03-06T18:31:17.423Z,94295.73
2019-03-06T18:34:06.766Z,94290.14
2019-03-06T18:36:55.554Z,94287.76
2019-03-06T18:39:44.825Z,94276.09
2019-03-06T18:42:34.230Z,94283.22
2019-03-06T18:45:23.007Z,94281.03
2019-03-06T18:48:11.964Z,94275.70
2019-03-06T18:51:01.205Z,94265.92
2019-03-06T18:53:49.910Z,94256.70
2019-03-06T18:56:38.247Z,94255.41
2019-03-06T18:59:27.782Z,94250.66
2019-03-06T19:02:16.858Z,94262.42
2019-03-06T19:05:06.409Z,94262.64
2019-03-06T19:07:55.621Z,94257.31
2019-03-06T19:10:44.152Z,94247.09
2019-03-06T19:13:33.168Z,94250.17
2019-03-06T19:16:22.634Z,94246.97
2019-03-06T19:19:11.781Z,94257.89
2019-03-06T19:22:01.228Z,94250.22
2019-03-06T19:24:49.577Z,94241.33
2019-03-06T19:27:38.662Z,94238.00
2019-03-06T19:30:28.220Z,94230.80
2019-03-06T19:33:18.743Z,94223.70
2019-03-06T19:36:07.304Z,94216.55
2019-03-06T19:38:56.450Z,94215.72
2019-03-06T19:41:45.732Z,94209.92
2019-03-06T19:44:34.632Z,94207.32
2019-03-06T19:47:24.053Z,94200.17
2019-03-06T19:50:18.351Z,94196.79
2019-03-06T19:53:07.635Z,94195.09
2019-03-06T19:55:56.405Z,94202.63
2019-03-06T19:58:45.872Z,94203.80
2019-03-06T20:01:34.873Z,94200.73
2019-03-06T20:04:24.349Z,94198.38
2019-03-06T20:07:12.866Z,94203.83
2019-03-06T20:10:02.093Z,94205.77
2019-03-06T20:12:51.485Z,94205.07
2019-03-06T20:15:40.721Z,94195.11
2019-03-06T20:18:30.370Z,94194.80
2019-03-06T20:21:20.185Z,94195.83
2019-03-06T20:24:09.125Z,94191.03
2019-03-06T20:26:58.531Z,94184.78
2019-03-06T20:29:47.550Z,94190.89
2019-03-06T20:32:36.950Z,94177.31
2019-03-06T20:35:26.424Z,94174.41
2019-03-06T20:38:15.571Z,94173.00
2019-03-06T20:41:04.661Z,94167.86
2019-03-06T20:43:53.112Z,94164.61
2019-03-06T20:46:41.822Z,94166.30
2019-03-06T20:49:30.658Z,94163.18
2019-03-06T20:52:19.661Z,94161.11
2019-03-06T20:55:08.776Z,94164.61
2019-03-06T20:57:57.227Z,94158.38
2019-03-06T21:00:46.450Z,94159.50
2019-03-06T21:03:35.059Z,94156.30
2019-03-06T21:06:33.049Z,94140.13
2019-03-06T21:09:14.350Z,94144.94
2019-03-06T21:12:04.938Z,94149.66
2019-03-06T21:14:54.027Z,94148.31
2019-03-06T21:17:42.767Z,94145.33
2019-03-06T21:20:32.124Z,94145.72
2019-03-06T21:23:21.293Z,94144.67
2019-03-06T21:26:09.663Z,94143.16
2019-03-06T21:28:58.803Z,94149.09
2019-03-06T21:31:47.789Z,94148.52
2019-03-06T21:34:36.840Z,94150.06
2019-03-06T21:37:26.180Z,94147.37
2019-03-06T21:40:15.926Z,94145.25
2019-03-06T21:43:04.858Z,94148.90
2019-03-06T21:45:53.781Z,94142.41
2019-03-06T21:48:42.787Z,94147.98
2019-03-06T21:51:31.592Z,94145.17
2019-03-06T21:54:20.397Z,94149.52
2019-03-06T21:57:09.511Z,94141.23
2019-03-06T21:59:58.630Z,94138.30
2019-03-06T22:02:47.527Z,94132.82
2019-03-06T22:05:36.399Z,94135.58
2019-03-06T22:08:25.679Z,94137.27
2019-03-06T22:11:14.467Z,94132.93
2019-03-06T22:14:03.396Z,94135.00
2019-03-06T22:16:52.322Z,94130.95
2019-03-06T22:19:41.247Z,94123.02
2019-03-06T22:22:29.621Z,94129.05
2019-03-06T22:25:18.023Z,94126.83
2019-03-06T22:28:06.990Z,94126.69
2019-03-06T22:30:55.976Z,94116.64
2019-03-06T22:33:44.565Z,94105.84
2019-03-06T22:36:33.363Z,94111.16
2019-03-06T22:39:22.243Z,94100.36
2019-03-06T22:42:10.789Z,94103.02
2019-03-06T22:44:59.807Z,94100.42
2019-03-06T22:47:48.230Z,94096.91
2019-03-06T22:50:37.550Z,94094.83
2019-03-06T22:53:26.492Z,94081.72
2019-03-06T22:56:15.225Z,94059.59
2019-03-06T22:59:03.899Z,94055.83
2019-03-06T23:01:53.477Z,94056.94
2019-03-06T23:04:42.477Z,94048.75
2019-03-06T23:07:31.486Z,94054.95
2019-03-06T23:10:20.668Z,94046.29
2019-03-06T23:13:09.903Z,94043.11
2019-03-06T23:15:58.661Z,94035.16
2019-03-06T23:18:47.224Z,94039.60
2019-03-06T23:21:36.176Z,94035.02
2019-03-06T23:24:24.748Z,94034.83
2019-03-06T23:27:13.205Z,94042.39
2019-03-06T23:30:02.060Z,94031.98
2019-03-06T23:32:50.618Z,94028.95
2019-03-06T23:35:39.049Z,94032.46
2019-03-06T23:38:27.868Z,94036.75
2019-03-06T23:41:16.034Z,94026.25
2019-03-06T23:44:04.647Z,94024.56
2019-03-06T23:46:53.991Z,94020.75
2019-03-06T23:49:42.234Z,94018.59
2019-03-06T23:52:35.797Z,94012.23
2019-03-06T23:55:24.113Z,94017.82
2019-03-06T23:58:13.067Z,94013.23
